sensor_id;sensor_type;location;lat;lon;timestamp;temperature;humidity
65034;DHT22;51601;51.356;12.458;2022-11-03T00:03:20;8.10;90.10
65034;DHT22;51601;51.356;12.458;2022-11-03T00:07:33;8.10;89.60
65034;DHT22;51601;51.356;12.458;2022-11-03T00:11:49;8.10;90.10
65034;DHT22;51601;51.356;12.458;2022-11-03T00:16:03;8.10;90.30
65034;DHT22;51601;51.356;12.458;2022-11-03T00:20:18;8.00;90.50
65034;DHT22;51601;51.356;12.458;2022-11-03T00:24:32;8.10;90.60
65034;DHT22;51601;51.356;12.458;2022-11-03T00:28:48;8.00;91.20
65034;DHT22;51601;51.356;12.458;2022-11-03T00:33:02;8.00;91.10
65034;DHT22;51601;51.356;12.458;2022-11-03T00:37:17;8.00;91.20
65034;DHT22;51601;51.356;12.458;2022-11-03T00:41:33;8.00;91.60
65034;DHT22;51601;51.356;12.458;2022-11-03T00:45:49;7.90;91.30
65034;DHT22;51601;51.356;12.458;2022-11-03T00:50:03;7.90;91.40
65034;DHT22;51601;51.356;12.458;2022-11-03T00:54:18;7.90;91.40
65034;DHT22;51601;51.356;12.458;2022-11-03T00:58:32;7.90;91.30
65034;DHT22;51601;51.356;12.458;2022-11-03T01:02:46;7.90;91.10
65034;DHT22;51601;51.356;12.458;2022-11-03T01:07:00;7.90;91.00
65034;DHT22;51601;51.356;12.458;2022-11-03T01:11:18;7.80;91.20
65034;DHT22;51601;51.356;12.458;2022-11-03T01:15:49;7.90;91.00
65034;DHT22;51601;51.356;12.458;2022-11-03T01:20:03;7.80;91.00
65034;DHT22;51601;51.356;12.458;2022-11-03T01:24:17;7.80;91.30
65034;DHT22;51601;51.356;12.458;2022-11-03T01:28:34;7.80;92.00
65034;DHT22;51601;51.356;12.458;2022-11-03T01:32:47;7.90;92.20
65034;DHT22;51601;51.356;12.458;2022-11-03T01:37:02;7.90;92.60
65034;DHT22;51601;51.356;12.458;2022-11-03T01:41:18;8.00;92.80
65034;DHT22;51601;51.356;12.458;2022-11-03T01:45:33;8.00;92.90
65034;DHT22;51601;51.356;12.458;2022-11-03T01:49:49;8.00;93.00
65034;DHT22;51601;51.356;12.458;2022-11-03T01:54:07;7.90;93.00
65034;DHT22;51601;51.356;12.458;2022-11-03T01:58:25;7.90;93.10
65034;DHT22;51601;51.356;12.458;2022-11-03T02:02:42;7.90;93.20
65034;DHT22;51601;51.356;12.458;2022-11-03T02:07:04;7.90;93.20
65034;DHT22;51601;51.356;12.458;2022-11-03T02:11:19;7.90;93.10
65034;DHT22;51601;51.356;12.458;2022-11-03T02:15:52;7.80;93.10
65034;DHT22;51601;51.356;12.458;2022-11-03T02:20:11;7.80;93.10
65034;DHT22;51601;51.356;12.458;2022-11-03T02:24:32;7.80;93.00
65034;DHT22;51601;51.356;12.458;2022-11-03T02:28:50;7.80;93.00
65034;DHT22;51601;51.356;12.458;2022-11-03T02:33:12;7.80;92.90
65034;DHT22;51601;51.356;12.458;2022-11-03T02:37:30;7.80;92.80
65034;DHT22;51601;51.356;12.458;2022-11-03T02:41:46;7.80;92.80
65034;DHT22;51601;51.356;12.458;2022-11-03T02:46:04;7.80;92.60
65034;DHT22;51601;51.356;12.458;2022-11-03T02:50:18;7.80;92.50
65034;DHT22;51601;51.356;12.458;2022-11-03T02:54:36;7.80;92.40
65034;DHT22;51601;51.356;12.458;2022-11-03T02:58:56;7.80;92.70
65034;DHT22;51601;51.356;12.458;2022-11-03T03:03:17;7.80;92.90
65034;DHT22;51601;51.356;12.458;2022-11-03T03:07:34;7.70;93.00
65034;DHT22;51601;51.356;12.458;2022-11-03T03:11:50;7.70;93.10
65034;DHT22;51601;51.356;12.458;2022-11-03T03:16:09;7.70;93.00
65034;DHT22;51601;51.356;12.458;2022-11-03T03:20:31;7.60;92.90
65034;DHT22;51601;51.356;12.458;2022-11-03T03:24:51;7.70;92.60
65034;DHT22;51601;51.356;12.458;2022-11-03T03:29:10;7.60;91.80
65034;DHT22;51601;51.356;12.458;2022-11-03T03:33:26;7.50;91.50
65034;DHT22;51601;51.356;12.458;2022-11-03T03:37:45;7.40;91.50
65034;DHT22;51601;51.356;12.458;2022-11-03T03:42:00;7.20;91.70
65034;DHT22;51601;51.356;12.458;2022-11-03T03:46:16;7.10;91.90
65034;DHT22;51601;51.356;12.458;2022-11-03T03:50:33;7.10;92.00
65034;DHT22;51601;51.356;12.458;2022-11-03T03:54:49;7.00;92.90
65034;DHT22;51601;51.356;12.458;2022-11-03T03:59:03;6.90;93.60
65034;DHT22;51601;51.356;12.458;2022-11-03T04:03:18;6.90;93.90
65034;DHT22;51601;51.356;12.458;2022-11-03T04:07:31;6.90;94.00
65034;DHT22;51601;51.356;12.458;2022-11-03T04:12:02;6.90;94.10
65034;DHT22;51601;51.356;12.458;2022-11-03T04:16:36;6.90;94.10
65034;DHT22;51601;51.356;12.458;2022-11-03T04:21:10;6.90;94.10
65034;DHT22;51601;51.356;12.458;2022-11-03T04:25:47;6.90;94.10
65034;DHT22;51601;51.356;12.458;2022-11-03T04:30:13;6.90;93.90
65034;DHT22;51601;51.356;12.458;2022-11-03T04:34:28;6.90;93.90
65034;DHT22;51601;51.356;12.458;2022-11-03T04:38:42;6.90;93.90
65034;DHT22;51601;51.356;12.458;2022-11-03T04:42:58;6.90;94.10
65034;DHT22;51601;51.356;12.458;2022-11-03T04:47:15;6.80;94.00
65034;DHT22;51601;51.356;12.458;2022-11-03T04:51:32;6.90;93.90
65034;DHT22;51601;51.356;12.458;2022-11-03T04:55:50;6.90;93.80
65034;DHT22;51601;51.356;12.458;2022-11-03T05:00:06;6.90;93.70
65034;DHT22;51601;51.356;12.458;2022-11-03T05:04:26;6.90;93.70
65034;DHT22;51601;51.356;12.458;2022-11-03T05:08:41;6.90;93.60
65034;DHT22;51601;51.356;12.458;2022-11-03T05:12:55;7.00;93.50
65034;DHT22;51601;51.356;12.458;2022-11-03T05:17:20;7.00;93.40
65034;DHT22;51601;51.356;12.458;2022-11-03T05:21:36;7.00;93.30
65034;DHT22;51601;51.356;12.458;2022-11-03T05:25:52;7.00;93.10
65034;DHT22;51601;51.356;12.458;2022-11-03T05:30:13;7.00;92.80
65034;DHT22;51601;51.356;12.458;2022-11-03T05:34:35;7.00;92.50
65034;DHT22;51601;51.356;12.458;2022-11-03T05:38:54;6.90;92.60
65034;DHT22;51601;51.356;12.458;2022-11-03T05:43:10;6.90;92.70
65034;DHT22;51601;51.356;12.458;2022-11-03T05:47:30;6.80;92.80
65034;DHT22;51601;51.356;12.458;2022-11-03T05:51:45;6.80;92.80
65034;DHT22;51601;51.356;12.458;2022-11-03T05:56:02;6.80;92.80
65034;DHT22;51601;51.356;12.458;2022-11-03T06:00:27;6.80;92.80
65034;DHT22;51601;51.356;12.458;2022-11-03T06:04:41;6.80;92.80
65034;DHT22;51601;51.356;12.458;2022-11-03T06:08:55;6.80;92.90
65034;DHT22;51601;51.356;12.458;2022-11-03T06:13:15;6.80;93.30
65034;DHT22;51601;51.356;12.458;2022-11-03T06:17:31;6.80;93.10
65034;DHT22;51601;51.356;12.458;2022-11-03T06:21:45;6.80;93.10
65034;DHT22;51601;51.356;12.458;2022-11-03T06:26:01;6.80;93.20
65034;DHT22;51601;51.356;12.458;2022-11-03T06:30:24;6.90;93.10
65034;DHT22;51601;51.356;12.458;2022-11-03T06:34:41;6.90;93.00
65034;DHT22;51601;51.356;12.458;2022-11-03T06:38:56;7.10;92.90
65034;DHT22;51601;51.356;12.458;2022-11-03T06:43:19;7.20;92.60
65034;DHT22;51601;51.356;12.458;2022-11-03T06:47:34;7.20;92.40
65034;DHT22;51601;51.356;12.458;2022-11-03T06:51:48;7.30;92.10
65034;DHT22;51601;51.356;12.458;2022-11-03T06:56:01;7.40;91.90
65034;DHT22;51601;51.356;12.458;2022-11-03T07:00:19;7.60;91.70
65034;DHT22;51601;51.356;12.458;2022-11-03T07:04:53;7.70;91.30
65034;DHT22;51601;51.356;12.458;2022-11-03T07:09:13;7.90;90.80
65034;DHT22;51601;51.356;12.458;2022-11-03T07:13:29;8.10;90.20
65034;DHT22;51601;51.356;12.458;2022-11-03T07:17:44;8.30;88.70
65034;DHT22;51601;51.356;12.458;2022-11-03T07:22:00;8.60;87.60
65034;DHT22;51601;51.356;12.458;2022-11-03T07:26:15;8.80;85.90
65034;DHT22;51601;51.356;12.458;2022-11-03T07:30:29;9.00;83.70
65034;DHT22;51601;51.356;12.458;2022-11-03T07:34:46;9.20;82.70
65034;DHT22;51601;51.356;12.458;2022-11-03T07:39:02;9.50;81.90
65034;DHT22;51601;51.356;12.458;2022-11-03T07:43:18;10.00;79.40
65034;DHT22;51601;51.356;12.458;2022-11-03T07:47:32;10.60;77.10
65034;DHT22;51601;51.356;12.458;2022-11-03T07:51:46;11.40;74.00
65034;DHT22;51601;51.356;12.458;2022-11-03T07:56:14;12.10;70.30
65034;DHT22;51601;51.356;12.458;2022-11-03T08:00:28;12.60;66.60
65034;DHT22;51601;51.356;12.458;2022-11-03T08:04:43;12.80;65.30
65034;DHT22;51601;51.356;12.458;2022-11-03T08:08:57;13.20;64.50
65034;DHT22;51601;51.356;12.458;2022-11-03T08:13:14;13.50;63.10
65034;DHT22;51601;51.356;12.458;2022-11-03T08:17:28;13.90;62.90
65034;DHT22;51601;51.356;12.458;2022-11-03T08:21:42;14.50;61.60
65034;DHT22;51601;51.356;12.458;2022-11-03T08:25:56;14.90;59.10
65034;DHT22;51601;51.356;12.458;2022-11-03T08:30:12;15.20;57.70
65034;DHT22;51601;51.356;12.458;2022-11-03T08:34:26;15.40;56.40
65034;DHT22;51601;51.356;12.458;2022-11-03T08:38:39;15.70;56.50
65034;DHT22;51601;51.356;12.458;2022-11-03T08:42:53;15.90;55.10
65034;DHT22;51601;51.356;12.458;2022-11-03T08:47:08;16.20;55.00
65034;DHT22;51601;51.356;12.458;2022-11-03T08:51:22;16.40;53.70
65034;DHT22;51601;51.356;12.458;2022-11-03T08:55:36;16.50;54.40
65034;DHT22;51601;51.356;12.458;2022-11-03T08:59:50;16.60;52.70
65034;DHT22;51601;51.356;12.458;2022-11-03T09:04:05;16.40;53.20
65034;DHT22;51601;51.356;12.458;2022-11-03T09:08:20;16.40;53.10
65034;DHT22;51601;51.356;12.458;2022-11-03T09:12:54;16.30;53.20
65034;DHT22;51601;51.356;12.458;2022-11-03T09:17:08;16.10;52.90
65034;DHT22;51601;51.356;12.458;2022-11-03T09:21:23;15.60;54.30
65034;DHT22;51601;51.356;12.458;2022-11-03T09:25:36;15.50;55.10
65034;DHT22;51601;51.356;12.458;2022-11-03T09:29:50;15.60;55.90
65034;DHT22;51601;51.356;12.458;2022-11-03T09:34:24;15.70;55.10
65034;DHT22;51601;51.356;12.458;2022-11-03T09:38:39;15.70;54.70
65034;DHT22;51601;51.356;12.458;2022-11-03T09:42:55;15.40;54.70
65034;DHT22;51601;51.356;12.458;2022-11-03T09:47:16;15.10;55.80
65034;DHT22;51601;51.356;12.458;2022-11-03T09:51:33;15.10;56.30
65034;DHT22;51601;51.356;12.458;2022-11-03T09:55:48;15.00;55.60
65034;DHT22;51601;51.356;12.458;2022-11-03T10:00:03;14.70;56.40
65034;DHT22;51601;51.356;12.458;2022-11-03T10:04:25;14.70;56.30
65034;DHT22;51601;51.356;12.458;2022-11-03T10:08:39;14.40;57.00
65034;DHT22;51601;51.356;12.458;2022-11-03T10:12:55;14.40;57.40
65034;DHT22;51601;51.356;12.458;2022-11-03T10:17:14;14.40;57.00
65034;DHT22;51601;51.356;12.458;2022-11-03T10:21:30;14.50;56.70
65034;DHT22;51601;51.356;12.458;2022-11-03T10:25:45;14.40;56.90
65034;DHT22;51601;51.356;12.458;2022-11-03T10:30:07;14.50;56.90
65034;DHT22;51601;51.356;12.458;2022-11-03T10:34:26;14.60;57.70
65034;DHT22;51601;51.356;12.458;2022-11-03T10:38:44;14.80;58.00
65034;DHT22;51601;51.356;12.458;2022-11-03T10:42:58;15.10;57.50
65034;DHT22;51601;51.356;12.458;2022-11-03T10:47:23;15.20;56.40
65034;DHT22;51601;51.356;12.458;2022-11-03T10:51:38;15.40;56.20
65034;DHT22;51601;51.356;12.458;2022-11-03T10:55:51;15.40;54.70
65034;DHT22;51601;51.356;12.458;2022-11-03T11:00:12;15.20;54.70
65034;DHT22;51601;51.356;12.458;2022-11-03T11:04:31;15.20;54.60
65034;DHT22;51601;51.356;12.458;2022-11-03T11:08:45;15.10;54.70
65034;DHT22;51601;51.356;12.458;2022-11-03T11:13:27;15.10;55.00
65034;DHT22;51601;51.356;12.458;2022-11-03T11:17:44;15.40;53.90
65034;DHT22;51601;51.356;12.458;2022-11-03T11:22:11;15.80;53.40
65034;DHT22;51601;51.356;12.458;2022-11-03T11:26:35;16.00;52.70
65034;DHT22;51601;51.356;12.458;2022-11-03T11:30:57;16.00;52.00
65034;DHT22;51601;51.356;12.458;2022-11-03T11:35:16;15.90;53.10
65034;DHT22;51601;51.356;12.458;2022-11-03T11:39:43;16.10;53.00
65034;DHT22;51601;51.356;12.458;2022-11-03T11:44:44;16.40;53.20
65034;DHT22;51601;51.356;12.458;2022-11-03T11:49:14;16.90;52.00
65034;DHT22;51601;51.356;12.458;2022-11-03T11:53:31;17.00;51.20
65034;DHT22;51601;51.356;12.458;2022-11-03T11:57:47;17.10;51.10
65034;DHT22;51601;51.356;12.458;2022-11-03T12:02:02;17.10;51.00
65034;DHT22;51601;51.356;12.458;2022-11-03T12:06:16;17.20;51.30
65034;DHT22;51601;51.356;12.458;2022-11-03T12:10:30;17.20;51.20
65034;DHT22;51601;51.356;12.458;2022-11-03T12:14:45;16.90;51.70
65034;DHT22;51601;51.356;12.458;2022-11-03T12:19:39;16.70;52.60
65034;DHT22;51601;51.356;12.458;2022-11-03T12:23:53;16.40;53.40
65034;DHT22;51601;51.356;12.458;2022-11-03T12:28:07;16.20;55.00
65034;DHT22;51601;51.356;12.458;2022-11-03T12:32:23;15.80;55.20
65034;DHT22;51601;51.356;12.458;2022-11-03T12:36:46;15.70;55.90
65034;DHT22;51601;51.356;12.458;2022-11-03T12:41:07;15.70;56.40
65034;DHT22;51601;51.356;12.458;2022-11-03T12:45:36;15.80;56.40
65034;DHT22;51601;51.356;12.458;2022-11-03T12:49:52;15.80;56.40
65034;DHT22;51601;51.356;12.458;2022-11-03T12:54:05;15.80;56.60
65034;DHT22;51601;51.356;12.458;2022-11-03T12:58:19;15.70;56.30
65034;DHT22;51601;51.356;12.458;2022-11-03T13:02:33;15.70;56.70
65034;DHT22;51601;51.356;12.458;2022-11-03T13:06:48;15.70;56.70
65034;DHT22;51601;51.356;12.458;2022-11-03T13:11:02;15.70;56.90
65034;DHT22;51601;51.356;12.458;2022-11-03T13:15:36;15.60;57.10
65034;DHT22;51601;51.356;12.458;2022-11-03T13:19:50;15.60;57.50
65034;DHT22;51601;51.356;12.458;2022-11-03T13:24:07;15.60;57.90
65034;DHT22;51601;51.356;12.458;2022-11-03T13:28:21;15.70;58.10
65034;DHT22;51601;51.356;12.458;2022-11-03T13:32:35;15.80;58.10
65034;DHT22;51601;51.356;12.458;2022-11-03T13:36:49;15.80;58.00
65034;DHT22;51601;51.356;12.458;2022-11-03T13:41:04;15.90;57.80
65034;DHT22;51601;51.356;12.458;2022-11-03T13:45:20;16.00;57.80
65034;DHT22;51601;51.356;12.458;2022-11-03T13:49:35;16.00;57.80
65034;DHT22;51601;51.356;12.458;2022-11-03T13:54:08;15.90;57.70
65034;DHT22;51601;51.356;12.458;2022-11-03T13:58:43;15.90;57.80
65034;DHT22;51601;51.356;12.458;2022-11-03T14:03:17;15.90;58.30
65034;DHT22;51601;51.356;12.458;2022-11-03T14:07:51;15.80;57.90
65034;DHT22;51601;51.356;12.458;2022-11-03T14:12:05;15.80;57.90
65034;DHT22;51601;51.356;12.458;2022-11-03T14:16:38;15.80;58.10
65034;DHT22;51601;51.356;12.458;2022-11-03T14:20:52;15.70;58.60
65034;DHT22;51601;51.356;12.458;2022-11-03T14:25:06;15.60;59.10
65034;DHT22;51601;51.356;12.458;2022-11-03T14:29:21;15.50;59.90
65034;DHT22;51601;51.356;12.458;2022-11-03T14:33:36;15.40;60.00
65034;DHT22;51601;51.356;12.458;2022-11-03T14:37:50;15.40;60.20
65034;DHT22;51601;51.356;12.458;2022-11-03T14:42:04;15.30;60.60
65034;DHT22;51601;51.356;12.458;2022-11-03T14:46:18;15.30;61.10
65034;DHT22;51601;51.356;12.458;2022-11-03T14:50:33;15.20;61.30
65034;DHT22;51601;51.356;12.458;2022-11-03T14:54:46;15.10;61.50
65034;DHT22;51601;51.356;12.458;2022-11-03T14:59:00;15.00;61.70
65034;DHT22;51601;51.356;12.458;2022-11-03T15:03:14;14.90;62.00
65034;DHT22;51601;51.356;12.458;2022-11-03T15:07:30;14.80;62.40
65034;DHT22;51601;51.356;12.458;2022-11-03T15:11:45;14.60;62.70
65034;DHT22;51601;51.356;12.458;2022-11-03T15:15:59;14.60;63.20
65034;DHT22;51601;51.356;12.458;2022-11-03T15:20:12;14.50;63.50
65034;DHT22;51601;51.356;12.458;2022-11-03T15:24:28;14.40;63.40
65034;DHT22;51601;51.356;12.458;2022-11-03T15:29:02;14.30;63.30
65034;DHT22;51601;51.356;12.458;2022-11-03T15:33:15;14.30;63.30
65034;DHT22;51601;51.356;12.458;2022-11-03T15:37:29;14.20;63.20
65034;DHT22;51601;51.356;12.458;2022-11-03T15:41:44;14.20;63.40
65034;DHT22;51601;51.356;12.458;2022-11-03T15:45:58;14.10;63.40
65034;DHT22;51601;51.356;12.458;2022-11-03T15:50:11;14.00;63.40
65034;DHT22;51601;51.356;12.458;2022-11-03T15:54:27;14.00;63.50
65034;DHT22;51601;51.356;12.458;2022-11-03T15:58:42;14.00;63.50
65034;DHT22;51601;51.356;12.458;2022-11-03T16:02:55;13.90;63.60
65034;DHT22;51601;51.356;12.458;2022-11-03T16:07:09;13.90;63.70
65034;DHT22;51601;51.356;12.458;2022-11-03T16:11:23;13.80;63.90
65034;DHT22;51601;51.356;12.458;2022-11-03T16:15:38;13.80;64.10
65034;DHT22;51601;51.356;12.458;2022-11-03T16:19:52;13.70;64.40
65034;DHT22;51601;51.356;12.458;2022-11-03T16:24:06;13.70;64.70
65034;DHT22;51601;51.356;12.458;2022-11-03T16:28:20;13.60;64.90
65034;DHT22;51601;51.356;12.458;2022-11-03T16:32:36;13.50;65.20
65034;DHT22;51601;51.356;12.458;2022-11-03T16:36:49;13.50;65.50
65034;DHT22;51601;51.356;12.458;2022-11-03T16:41:03;13.40;65.90
65034;DHT22;51601;51.356;12.458;2022-11-03T16:45:19;13.40;66.30
65034;DHT22;51601;51.356;12.458;2022-11-03T16:49:39;13.30;66.70
65034;DHT22;51601;51.356;12.458;2022-11-03T16:53:53;13.20;67.10
65034;DHT22;51601;51.356;12.458;2022-11-03T16:58:08;13.20;67.30
65034;DHT22;51601;51.356;12.458;2022-11-03T17:02:22;13.10;67.50
65034;DHT22;51601;51.356;12.458;2022-11-03T17:06:37;13.10;67.80
65034;DHT22;51601;51.356;12.458;2022-11-03T17:10:51;13.10;68.00
65034;DHT22;51601;51.356;12.458;2022-11-03T17:15:05;13.00;68.50
65034;DHT22;51601;51.356;12.458;2022-11-03T17:19:19;12.90;68.60
65034;DHT22;51601;51.356;12.458;2022-11-03T17:23:34;12.90;68.70
65034;DHT22;51601;51.356;12.458;2022-11-03T17:27:49;12.90;68.80
65034;DHT22;51601;51.356;12.458;2022-11-03T17:32:08;12.80;68.90
65034;DHT22;51601;51.356;12.458;2022-11-03T17:36:23;12.80;69.20
65034;DHT22;51601;51.356;12.458;2022-11-03T17:40:39;12.70;69.50
65034;DHT22;51601;51.356;12.458;2022-11-03T17:44:54;12.60;69.70
65034;DHT22;51601;51.356;12.458;2022-11-03T17:49:08;12.60;69.90
65034;DHT22;51601;51.356;12.458;2022-11-03T17:53:23;12.50;69.90
65034;DHT22;51601;51.356;12.458;2022-11-03T17:57:39;12.50;70.20
65034;DHT22;51601;51.356;12.458;2022-11-03T18:01:52;12.40;70.40
65034;DHT22;51601;51.356;12.458;2022-11-03T18:06:14;12.30;70.50
65034;DHT22;51601;51.356;12.458;2022-11-03T18:10:32;12.30;71.00
65034;DHT22;51601;51.356;12.458;2022-11-03T18:14:48;12.10;72.10
65034;DHT22;51601;51.356;12.458;2022-11-03T18:19:01;11.90;72.90
65034;DHT22;51601;51.356;12.458;2022-11-03T18:23:17;11.80;73.50
65034;DHT22;51601;51.356;12.458;2022-11-03T18:27:31;11.80;73.60
65034;DHT22;51601;51.356;12.458;2022-11-03T18:31:47;11.80;73.70
65034;DHT22;51601;51.356;12.458;2022-11-03T18:36:04;11.70;74.40
65034;DHT22;51601;51.356;12.458;2022-11-03T18:40:18;11.50;74.80
65034;DHT22;51601;51.356;12.458;2022-11-03T18:44:32;11.50;75.40
65034;DHT22;51601;51.356;12.458;2022-11-03T18:48:48;11.40;75.60
65034;DHT22;51601;51.356;12.458;2022-11-03T18:53:02;11.40;75.50
65034;DHT22;51601;51.356;12.458;2022-11-03T18:57:22;11.40;75.40
65034;DHT22;51601;51.356;12.458;2022-11-03T19:01:37;11.50;75.30
65034;DHT22;51601;51.356;12.458;2022-11-03T19:05:52;11.50;75.20
65034;DHT22;51601;51.356;12.458;2022-11-03T19:10:08;11.40;75.20
65034;DHT22;51601;51.356;12.458;2022-11-03T19:14:26;11.40;75.60
65034;DHT22;51601;51.356;12.458;2022-11-03T19:18:43;11.30;75.80
65034;DHT22;51601;51.356;12.458;2022-11-03T19:23:01;11.30;76.00
65034;DHT22;51601;51.356;12.458;2022-11-03T19:27:20;11.30;76.20
65034;DHT22;51601;51.356;12.458;2022-11-03T19:31:40;11.20;75.90
65034;DHT22;51601;51.356;12.458;2022-11-03T19:35:55;11.20;76.00
65034;DHT22;51601;51.356;12.458;2022-11-03T19:40:14;11.10;76.70
65034;DHT22;51601;51.356;12.458;2022-11-03T19:44:31;11.00;77.40
65034;DHT22;51601;51.356;12.458;2022-11-03T19:48:46;10.90;78.00
65034;DHT22;51601;51.356;12.458;2022-11-03T19:53:02;10.80;78.30
65034;DHT22;51601;51.356;12.458;2022-11-03T19:57:19;10.80;78.10
65034;DHT22;51601;51.356;12.458;2022-11-03T20:01:36;10.80;78.20
65034;DHT22;51601;51.356;12.458;2022-11-03T20:05:52;10.80;78.10
65034;DHT22;51601;51.356;12.458;2022-11-03T20:10:13;10.70;78.10
65034;DHT22;51601;51.356;12.458;2022-11-03T20:14:29;10.60;78.00
65034;DHT22;51601;51.356;12.458;2022-11-03T20:18:44;10.50;78.20
65034;DHT22;51601;51.356;12.458;2022-11-03T20:23:00;10.50;78.80
65034;DHT22;51601;51.356;12.458;2022-11-03T20:27:17;10.40;79.70
65034;DHT22;51601;51.356;12.458;2022-11-03T20:31:33;10.30;80.20
65034;DHT22;51601;51.356;12.458;2022-11-03T20:35:48;10.20;80.70
65034;DHT22;51601;51.356;12.458;2022-11-03T20:40:02;10.30;82.10
65034;DHT22;51601;51.356;12.458;2022-11-03T20:44:17;10.20;82.20
65034;DHT22;51601;51.356;12.458;2022-11-03T20:48:32;10.10;82.60
65034;DHT22;51601;51.356;12.458;2022-11-03T20:52:46;10.10;83.20
65034;DHT22;51601;51.356;12.458;2022-11-03T20:57:01;10.00;83.30
65034;DHT22;51601;51.356;12.458;2022-11-03T21:01:16;10.00;83.60
65034;DHT22;51601;51.356;12.458;2022-11-03T21:05:32;10.00;84.20
65034;DHT22;51601;51.356;12.458;2022-11-03T21:09:46;10.00;84.60
65034;DHT22;51601;51.356;12.458;2022-11-03T21:14:03;10.00;84.80
65034;DHT22;51601;51.356;12.458;2022-11-03T21:18:20;10.00;85.10
65034;DHT22;51601;51.356;12.458;2022-11-03T21:22:52;10.10;85.20
65034;DHT22;51601;51.356;12.458;2022-11-03T21:27:09;10.20;85.30
65034;DHT22;51601;51.356;12.458;2022-11-03T21:31:23;10.20;85.30
65034;DHT22;51601;51.356;12.458;2022-11-03T21:35:39;10.20;85.20
65034;DHT22;51601;51.356;12.458;2022-11-03T21:39:55;10.20;85.00
65034;DHT22;51601;51.356;12.458;2022-11-03T21:44:08;10.20;85.00
65034;DHT22;51601;51.356;12.458;2022-11-03T21:48:28;10.20;84.60
65034;DHT22;51601;51.356;12.458;2022-11-03T21:52:59;10.10;84.60
65034;DHT22;51601;51.356;12.458;2022-11-03T21:57:14;10.00;85.60
65034;DHT22;51601;51.356;12.458;2022-11-03T22:01:28;10.00;86.60
65034;DHT22;51601;51.356;12.458;2022-11-03T22:05:43;10.00;87.30
65034;DHT22;51601;51.356;12.458;2022-11-03T22:10:00;10.00;87.60
65034;DHT22;51601;51.356;12.458;2022-11-03T22:14:32;9.90;87.40
65034;DHT22;51601;51.356;12.458;2022-11-03T22:18:59;9.90;87.00
65034;DHT22;51601;51.356;12.458;2022-11-03T22:23:34;9.90;86.90
65034;DHT22;51601;51.356;12.458;2022-11-03T22:28:05;9.90;86.60
65034;DHT22;51601;51.356;12.458;2022-11-03T22:32:37;9.80;86.50
65034;DHT22;51601;51.356;12.458;2022-11-03T22:36:51;9.80;86.90
65034;DHT22;51601;51.356;12.458;2022-11-03T22:41:05;9.70;87.30
65034;DHT22;51601;51.356;12.458;2022-11-03T22:45:38;9.70;87.80
65034;DHT22;51601;51.356;12.458;2022-11-03T22:50:13;9.70;87.80
65034;DHT22;51601;51.356;12.458;2022-11-03T22:54:30;9.70;87.70
65034;DHT22;51601;51.356;12.458;2022-11-03T22:58:45;9.60;87.80
65034;DHT22;51601;51.356;12.458;2022-11-03T23:03:05;9.60;87.90
65034;DHT22;51601;51.356;12.458;2022-11-03T23:07:26;9.60;88.30
65034;DHT22;51601;51.356;12.458;2022-11-03T23:11:45;9.70;88.90
65034;DHT22;51601;51.356;12.458;2022-11-03T23:16:09;9.60;89.10
65034;DHT22;51601;51.356;12.458;2022-11-03T23:20:35;9.60;89.70
65034;DHT22;51601;51.356;12.458;2022-11-03T23:25:21;9.60;89.80
65034;DHT22;51601;51.356;12.458;2022-11-03T23:29:45;9.70;90.00
65034;DHT22;51601;51.356;12.458;2022-11-03T23:34:01;9.70;90.00
65034;DHT22;51601;51.356;12.458;2022-11-03T23:38:15;9.70;90.10
65034;DHT22;51601;51.356;12.458;2022-11-03T23:42:30;9.70;90.20
65034;DHT22;51601;51.356;12.458;2022-11-03T23:46:44;9.80;90.60
65034;DHT22;51601;51.356;12.458;2022-11-03T23:51:19;9.70;90.60
65034;DHT22;51601;51.356;12.458;2022-11-03T23:55:38;9.70;90.30
